Latest Weather Observations for Miles

IDQ60801

Issued at 9:35 pm EST Wednesday 23 April 2014 (issued every 30 minutes, with the page automatically refreshed every 10 minutes)

About weather observations | Map of weather stations | Latest weather observations for QLD | Other Formats
Station Details ID: 042112 Name: MILES CONSTANCE STREET Lat: -26.66 Lon: 150.18 Height: 304.8 m
Data from the previous 72 hours. | See also: Recent months at Miles
Date/Time
EST
Temp
°C
App
Temp
°C
Dew
Point
Rel
Hum
%
Delta-T
°C
Wind Press
QNH
hPa
Press
MSL
hPa
Rain
since 9 am
mm
Dir
 
Spd
km/h
Gust
km/h
Spd
kts
Gust
kts
23/09:30pm 15.2 16.0 12.5 84 1.5 CALM 0 0 0 0 1018.3 - 0.0
23/09:00pm 15.6 16.4 12.5 82 1.7 N 0 0 0 0 1018.3 1017.3 0.0
23/08:30pm 16.5 17.3 12.4 77 2.3 CALM 0 0 0 0 1018.1 - 0.0
23/08:00pm 16.9 17.6 12.2 74 2.6 CALM 0 0 0 0 1018.0 - 0.0
23/07:30pm 17.8 18.5 12.3 70 3.1 CALM 0 0 0 0 1017.7 - 0.0
23/07:00pm 18.9 19.5 11.9 64 3.9 CALM 0 0 0 0 1017.5 - 0.0
23/06:30pm 20.1 20.8 12.1 60 4.5 CALM 0 0 0 0 1017.2 - 0.0
23/06:00pm 21.8 22.6 12.6 56 5.3 CALM 0 0 0 0 1017.0 1016.0 0.0
23/05:30pm 24.1 23.8 10.1 41 7.8 NE 2 7 1 4 1016.8 - 0.0
23/05:00pm 25.6 22.8 8.6 34 9.3 ENE 13 17 7 9 1016.6 - 0.0
23/04:30pm 26.3 23.8 8.1 31 9.9 E 11 17 6 9 1016.5 - 0.0
23/04:00pm 27.4 25.2 7.7 28 10.7 E 9 19 5 10 1016.3 - 0.0
23/03:30pm 27.3 22.7 5.5 25 11.4 SE 19 24 10 13 1016.3 - 0.0
23/03:00pm 27.8 24.8 6.1 25 11.5 E 11 19 6 10 1016.4 1015.4 0.0
23/02:30pm 27.3 24.8 6.7 27 11.0 E 9 19 5 10 1016.6 - 0.0
23/02:00pm 27.5 24.8 5.6 24 11.5 SSE 9 19 5 10 1016.7 - 0.0
23/01:30pm 27.5 25.2 7.6 28 10.8 ESE 9 15 5 8 1016.8 - 0.0
23/01:00pm 27.3 24.8 8.4 30 10.4 E 11 17 6 9 1017.5 - 0.0
23/12:30pm 26.7 25.4 9.3 33 9.7 E 6 9 3 5 1018.0 - 0.0
23/12:00pm 27.1 25.0 9.6 33 9.8 NNE 11 20 6 11 1018.5 1017.5 0.0
23/11:30am 26.5 25.6 10.7 37 9.0 NW 6 13 3 7 1019.1 - 0.0
23/11:00am 26.7 25.8 11.2 38 8.9 N 7 13 4 7 1019.6 - 0.0
23/10:30am 26.2 25.3 12.5 42 8.0 N 9 20 5 11 1019.9 - 0.0
23/10:00am 25.2 24.4 12.9 46 7.2 N 9 17 5 9 1020.2 - 0.0
23/09:30am 24.4 23.6 14.0 52 6.2 N 11 19 6 10 1020.3 - 0.0
23/09:00am 23.1 23.8 16.1 64 4.3 N 7 13 4 7 1020.4 1019.4 0.0
23/08:30am 20.6 21.2 15.4 72 3.1 N 6 9 3 5 1020.4 - 0.0
23/08:00am 18.7 18.9 14.6 77 2.4 N 7 13 4 7 1020.2 - 0.0
23/07:30am 16.4 17.2 13.6 83 1.6 NNE 2 7 1 4 1020.2 - 0.0
23/07:00am 13.5 14.3 12.4 93 0.6 CALM 0 0 0 0 1020.2 - 0.0
23/06:30am 13.3 14.1 12.6 95 0.4 CALM 0 6 0 3 1019.8 - 0.0
23/06:00am 13.8 14.6 12.5 92 0.7 N 0 0 0 0 1019.7 1018.7 0.0
23/05:30am 14.2 13.8 12.4 89 1.0 N 6 7 3 4 1019.5 - 0.0
23/05:00am 14.5 13.9 12.3 87 1.2 N 7 9 4 5 1019.3 - 0.0
23/04:30am 14.8 14.4 12.4 85 1.3 N 6 9 3 5 1019.2 - 0.0
23/04:00am 15.0 14.6 12.5 85 1.4 N 6 7 3 4 1019.1 - 0.0
23/03:30am 15.0 14.6 12.5 85 1.4 N 6 7 3 4 1019.1 - 0.0
23/03:00am 15.1 15.6 12.8 86 1.3 N 2 6 1 3 1019.0 1018.0 0.0
23/02:30am 15.3 14.9 12.4 83 1.6 N 6 9 3 5 1018.9 - 0.0
23/02:00am 15.3 14.7 11.8 79 1.9 N 6 9 3 5 1019.0 - 0.0
23/01:30am 14.8 14.4 12.4 85 1.3 N 6 7 3 4 1019.3 - 0.0
23/01:00am 14.8 15.5 12.1 84 1.5 CALM 0 6 0 3 1019.6 - 0.0
23/12:30am 14.8 14.1 11.3 79 1.9 N 6 7 3 4 1019.6 - 0.0
23/12:00am 14.7 14.1 11.6 82 1.7 N 6 7 3 4 1019.8 1018.8 0.0
 
Date/Time
EST
Temp
°C
App
Temp
°C
Dew
Point
Rel
Hum
%
Delta-T
°C
Wind Press
QNH
hPa
Press
MSL
hPa
Rain
since 9 am
mm
Dir
 
Spd
km/h
Gust
km/h
Spd
kts
Gust
kts
22/11:30pm 14.6 14.0 11.7 83 1.6 N 6 7 3 4 1020.0 - 0.0
22/11:00pm 14.7 15.3 12.0 84 1.5 CALM 0 0 0 0 1020.1 - 0.0
22/10:30pm 15.3 15.8 11.6 78 2.0 CALM 0 0 0 0 1020.1 - 0.0
22/10:00pm 15.9 16.4 11.7 76 2.3 CALM 0 0 0 0 1020.0 - 0.0
22/09:30pm 16.0 16.4 11.2 73 2.6 CALM 0 0 0 0 1020.1 - 0.0
22/09:00pm 17.0 17.5 11.5 70 3.0 CALM 0 0 0 0 1020.1 1019.1 0.0
22/08:30pm 17.6 18.3 12.2 70 3.0 CALM 0 0 0 0 1019.9 - 0.0
22/08:00pm 18.3 18.7 11.4 64 3.8 CALM 0 0 0 0 1019.7 - 0.0
22/07:30pm 19.9 19.4 12.1 60 4.4 NNE 6 7 3 4 1019.6 - 0.0
22/07:00pm 21.9 20.6 9.1 44 6.9 ENE 6 7 3 4 1019.2 - 0.0
22/06:30pm 22.6 21.0 8.9 41 7.4 E 7 9 4 5 1018.9 - 0.0
22/06:00pm 23.1 21.9 9.6 42 7.4 E 6 9 3 5 1018.6 1017.6 0.0
22/05:30pm 24.4 22.8 8.6 36 8.6 E 7 13 4 7 1018.3 - 0.0
22/05:00pm 25.5 23.0 8.2 33 9.4 E 11 17 6 9 1018.2 - 0.0
22/04:30pm 26.5 24.4 8.4 31 9.9 ESE 9 15 5 8 1018.2 - 0.0
22/04:00pm 27.4 26.0 9.6 32 10.0 N 7 11 4 6 1018.4 - 0.0
22/03:30pm 27.8 27.1 8.6 30 10.6 N 2 11 1 6 1018.4 - 0.0
22/03:00pm 26.5 26.0 10.7 37 9.0 NNW 4 7 2 4 1018.6 1017.6 0.0
22/02:30pm 27.6 26.5 8.3 29 10.6 E 4 9 2 5 1018.8 - 0.0
22/02:00pm 27.1 25.7 9.4 33 9.9 ENE 7 13 4 7 1019.0 - 0.0
22/01:30pm 27.7 26.4 9.3 31 10.3 NE 6 17 3 9 1019.3 - 0.0
22/01:00pm 27.4 26.5 10.8 35 9.5 N 6 11 3 6 1019.7 - 0.0
22/12:30pm 27.1 25.6 10.6 35 9.4 NE 9 15 5 8 1020.1 - 0.0
22/12:00pm 26.3 25.1 11.5 39 8.5 NNW 9 15 5 8 1020.6 1019.6 0.0
22/11:30am 26.3 24.9 12.2 41 8.2 NNE 11 19 6 10 1021.2 - 0.0
22/11:00am 25.4 24.5 12.7 45 7.4 N 9 19 5 10 1021.8 - 0.0
22/10:30am 25.0 24.3 13.3 48 6.9 N 9 20 5 11 1022.5 - 0.0
22/10:00am 24.3 23.7 13.4 50 6.4 N 9 17 5 9 1022.5 - 0.0
22/09:30am 23.0 21.5 13.2 54 5.7 N 13 20 7 11 1023.0 - 0.0
22/09:00am 22.0 21.6 14.0 60 4.7 N 9 15 5 8 1022.6 1021.6 0.0
22/08:30am 19.8 19.4 14.0 69 3.4 N 9 15 5 8 1022.9 - 0.0
22/08:00am 18.3 17.8 13.8 75 2.6 N 9 15 5 8 1022.4 - 0.0
22/07:30am 16.8 16.6 13.5 81 1.9 N 7 11 4 6 1022.0 - 0.0
22/07:00am 15.3 15.0 12.8 85 1.4 N 6 11 3 6 1021.7 - 0.0
22/06:30am 14.3 13.8 12.5 89 1.0 N 7 13 4 7 1021.5 - 0.0
22/06:00am 13.9 13.3 12.3 90 0.9 N 7 9 4 5 1021.6 1020.6 0.0
22/05:30am 14.0 13.4 12.4 90 0.9 N 7 9 4 5 1021.4 - 0.0
22/05:00am 14.3 13.8 12.5 89 1.0 N 7 9 4 5 1021.1 - 0.0
22/04:30am 14.9 14.3 12.4 85 1.4 N 7 13 4 7 1020.7 - 0.0
22/04:00am 15.2 14.3 12.5 84 1.5 N 9 11 5 6 1020.7 - 0.0
22/03:30am 15.5 14.9 12.4 82 1.7 N 7 11 4 6 1020.6 - 0.0
22/03:00am 15.7 14.8 12.5 81 1.8 N 9 13 5 7 1020.4 1019.4 0.0
22/02:30am 16.0 15.4 12.2 78 2.1 N 7 11 4 6 1020.5 - 0.0
22/02:00am 16.6 15.5 12.1 75 2.5 N 9 15 5 8 1020.6 - 0.0
22/01:30am 16.6 15.5 11.9 74 2.6 N 9 13 5 7 1020.6 - 0.0
22/01:00am 16.6 15.7 11.5 72 2.8 N 7 11 4 6 1020.7 - 0.0
22/12:30am 17.4 15.8 11.4 68 3.3 N 11 15 6 8 1020.7 - 0.0
22/12:00am 16.5 15.7 11.8 74 2.6 N 7 11 4 6 1020.7 1019.7 0.0
 
Date/Time
EST
Temp
°C
App
Temp
°C
Dew
Point
Rel
Hum
%
Delta-T
°C
Wind Press
QNH
hPa
Press
MSL
hPa
Rain
since 9 am
mm
Dir
 
Spd
km/h
Gust
km/h
Spd
kts
Gust
kts
21/11:30pm 16.6 16.0 12.3 76 2.4 N 7 9 4 5 1020.5 - 0.0
21/11:00pm 16.8 16.2 11.7 72 2.8 N 6 9 3 5 1020.6 - 0.0
21/10:30pm 16.1 16.9 12.5 79 2.0 CALM 0 6 0 3 1020.7 - 0.0
21/10:00pm 16.4 17.3 13.0 80 1.9 CALM 0 0 0 0 1020.7 - 0.0
21/09:30pm 16.9 17.5 13.2 79 2.1 N 2 7 1 4 1020.5 - 0.0
21/09:00pm 17.0 18.2 13.9 82 1.8 CALM 0 4 0 2 1020.5 1019.5 0.0
21/08:30pm 17.6 18.7 13.4 76 2.4 CALM 0 0 0 0 1020.2 - 0.0
21/08:00pm 18.3 19.4 13.6 74 2.7 CALM 0 6 0 3 1020.1 - 0.0
21/07:30pm 19.1 19.7 13.2 68 3.4 NNW 2 6 1 3 1020.0 - 0.0
21/07:00pm 19.1 20.3 13.9 72 3.0 CALM 0 0 0 0 1019.6 - 0.0
21/06:30pm 20.4 21.8 14.5 69 3.5 CALM 0 0 0 0 1019.2 - 0.0
21/06:00pm 21.9 22.9 13.3 58 5.0 CALM 0 0 0 0 1019.0 1018.0 0.0
21/05:30pm 23.0 24.2 13.9 56 5.4 CALM 0 0 0 0 1018.8 - 0.0
21/05:00pm 24.8 25.7 12.8 47 7.0 CALM 0 0 0 0 1018.6 - 0.0
21/04:30pm 25.3 26.3 13.3 47 7.1 CALM 0 0 0 0 1018.3 - 0.0
21/04:00pm 26.7 26.5 11.7 39 8.7 WNW 4 7 2 4 1018.3 - 0.0
21/03:30pm 28.3 27.2 10.0 32 10.4 NNE 6 9 3 5 1018.4 - 0.0
21/03:00pm 29.3 29.3 11.2 32 10.5 SSE 2 6 1 3 1018.3 1017.3 0.0
21/02:30pm 28.7 27.5 10.3 31 10.5 NNE 7 15 4 8 1018.3 - 0.0
21/02:00pm 28.3 27.3 10.9 34 10.0 NW 7 13 4 7 1018.6 - 0.0
21/01:30pm 27.9 26.9 11.1 35 9.7 NNW 7 11 4 6 1018.9 - 0.0
21/01:00pm 28.1 26.8 11.4 35 9.7 N 9 17 5 9 1019.3 - 0.0
21/12:30pm 27.5 26.4 12.1 38 9.0 N 9 17 5 9 1019.7 - 0.0
21/12:00pm 27.5 27.0 12.6 39 8.8 N 7 11 4 6 1020.4 1019.4 0.0
21/11:30am 26.5 25.0 12.0 40 8.4 N 11 17 6 9 1021.0 - 0.0
21/11:00am 26.2 24.7 13.2 44 7.7 N 13 24 7 13 1021.5 - 0.0
21/10:30am 25.3 23.3 12.8 45 7.3 N 15 26 8 14 1021.7 - 0.0
21/10:00am 24.5 22.7 13.3 49 6.6 N 15 26 8 14 1021.9 - 0.0
21/09:30am 23.6 22.0 13.8 54 5.8 N 15 30 8 16 1021.9 - 0.0
21/09:00am 22.0 21.6 14.0 60 4.7 N 9 19 5 10 1021.8 1020.8 0.0
21/08:30am 19.1 18.0 12.0 63 4.0 N 9 15 5 8 1021.7 - 0.0
21/08:00am 16.7 15.3 11.0 69 3.1 N 9 17 5 9 1021.5 - 0.0
21/07:30am 14.8 13.7 10.5 75 2.3 N 7 13 4 7 1021.2 - 0.0
21/07:00am 12.9 11.6 9.8 81 1.6 N 7 11 4 6 1020.9 - 0.0
21/06:30am 11.0 9.5 9.2 89 0.9 N 7 9 4 5 1020.6 - 0.0
21/06:00am 11.2 10.0 9.4 89 0.9 N 6 7 3 4 1020.3 1019.3 0.0
21/05:30am 11.4 10.1 9.2 86 1.1 N 6 7 3 4 1020.0 - 0.0
21/05:00am 11.3 10.0 9.3 87 1.0 N 6 9 3 5 1019.8 - 0.0
21/04:30am 11.0 9.8 9.4 90 0.8 N 6 9 3 5 1019.3 - 0.0
21/04:00am 10.8 9.6 9.4 91 0.7 N 6 9 3 5 1019.0 - 0.0
21/03:30am 10.9 10.1 9.5 91 0.7 N 4 7 2 4 1018.8 - 0.0
21/03:00am 10.8 10.8 9.8 93 0.5 CALM 0 0 0 0 1018.6 1017.6 0.0
21/02:30am 10.9 11.0 10.1 95 0.4 CALM 0 0 0 0 1018.6 - 0.0
21/02:00am 11.4 11.5 10.2 92 0.6 CALM 0 6 0 3 1018.6 - 0.0
21/01:30am 11.7 11.4 10.2 90 0.8 E 2 9 1 5 1018.6 - 0.0
21/01:00am 11.8 12.0 10.5 92 0.7 CALM 0 0 0 0 1018.6 - 0.0
21/12:30am 11.9 12.2 10.8 93 0.6 CALM 0 0 0 0 1018.7 - 0.0
21/12:00am 12.3 12.6 11.0 92 0.7 CALM 0 0 0 0 1018.6 1017.6 0.0
 
Date/Time
EST
Temp
°C
App
Temp
°C
Dew
Point
Rel
Hum
%
Delta-T
°C
Wind Press
QNH
hPa
Press
MSL
hPa
Rain
since 9 am
mm
Dir
 
Spd
km/h
Gust
km/h
Spd
kts
Gust
kts
20/11:30pm 12.8 13.0 10.7 87 1.1 CALM 0 0 0 0 1018.7 - 0.0
20/11:00pm 13.4 13.7 11.0 85 1.3 CALM 0 0 0 0 1018.8 - 0.0
20/10:30pm 13.8 14.1 11.0 83 1.5 CALM 0 0 0 0 1019.0 - 0.0
20/10:00pm 14.2 14.5 10.8 80 1.8 CALM 0 0 0 0 1019.2 - 0.0

Other Formats:

Comma delimited format used in spreadsheet applications
http://www.bom.gov.au/fwo/IDQ60801/IDQ60801.95529.axf

JavaScript Object Notation format (JSON) in row-major order
http://www.bom.gov.au/fwo/IDQ60801/IDQ60801.95529.json